createdAt,value
2023-08-02T00:00:25.754Z,42.30
2023-08-02T00:01:25.778Z,42.93
2023-08-02T00:02:27.712Z,42.21
2023-08-02T00:04:29.407Z,42.56
2023-08-02T00:05:25.685Z,41.54
2023-08-02T00:06:25.898Z,42.42
2023-08-02T00:07:25.908Z,45.84
2023-08-02T00:08:32.873Z,45.60
2023-08-02T00:09:33.776Z,42.30
2023-08-02T00:10:26.678Z,41.13
2023-08-02T00:11:25.643Z,40.49
2023-08-02T00:12:25.625Z,43.01
2023-08-02T00:13:25.690Z,41.27
2023-08-02T00:14:28.324Z,41.67
2023-08-02T00:15:25.600Z,43.22
2023-08-02T00:16:26.412Z,43.09
2023-08-02T00:17:39.654Z,43.63
2023-08-02T00:18:26.584Z,41.69
2023-08-02T00:19:25.631Z,44.67
2023-08-02T00:20:25.546Z,41.21
2023-08-02T00:21:25.564Z,40.41
2023-08-02T00:22:26.239Z,41.91
2023-08-02T00:23:25.515Z,42.64
2023-08-02T00:24:28.426Z,42.25
2023-08-02T00:25:29.966Z,40.70
2023-08-02T00:26:28.859Z,40.94
2023-08-02T00:27:25.528Z,41.65
2023-08-02T00:28:25.460Z,42.65
2023-08-02T00:29:25.470Z,39.81
2023-08-02T00:30:25.471Z,40.12
2023-08-02T00:31:28.319Z,50.97
2023-08-02T00:32:25.433Z,58.26
2023-08-02T00:33:25.425Z,46.88
2023-08-02T00:34:25.420Z,44.02
2023-08-02T00:35:25.410Z,44.77
2023-08-02T00:36:25.457Z,43.16
2023-08-02T00:37:25.383Z,43.19
2023-08-02T00:38:25.410Z,43.51
2023-08-02T00:39:25.397Z,41.60
2023-08-02T00:40:25.333Z,42.21
2023-08-02T00:41:25.327Z,41.24
2023-08-02T00:42:25.318Z,43.06
2023-08-02T00:43:25.313Z,42.18
2023-08-02T00:44:25.347Z,41.54
2023-08-02T00:45:25.304Z,41.46
2023-08-02T00:46:25.375Z,41.86
2023-08-02T00:47:25.472Z,44.05
2023-08-02T00:48:25.266Z,43.46
2023-08-02T00:49:25.299Z,42.21
2023-08-02T00:50:25.248Z,41.01
2023-08-02T00:51:25.329Z,42.66
2023-08-02T00:52:25.226Z,42.68
2023-08-02T00:53:25.308Z,42.42
2023-08-02T00:54:25.196Z,41.57
2023-08-02T00:55:25.193Z,41.47
2023-08-02T00:56:25.191Z,42.14
2023-08-02T00:57:25.164Z,42.19
2023-08-02T00:58:25.161Z,42.29
2023-08-02T00:59:25.173Z,42.48
2023-08-02T01:00:25.204Z,41.29
2023-08-02T01:01:25.150Z,40.01
2023-08-02T01:02:25.143Z,41.23
2023-08-02T01:03:25.149Z,41.73
2023-08-02T01:04:26.299Z,41.07
2023-08-02T01:05:26.332Z,41.63
2023-08-02T01:06:26.479Z,45.23
2023-08-02T01:07:27.283Z,41.89
2023-08-02T01:08:26.357Z,45.65
2023-08-02T01:09:27.238Z,42.51
2023-08-02T01:10:26.254Z,42.51
2023-08-02T01:11:26.217Z,42.51
2023-08-02T01:12:26.311Z,45.65
2023-08-02T01:13:26.230Z,40.50
2023-08-02T14:47:52.954Z,53.51
2023-08-02T14:48:52.916Z,50.47
2023-08-02T14:49:52.896Z,52.55
2023-08-02T14:50:52.875Z,50.41
2023-08-02T14:51:52.871Z,53.73
2023-08-02T14:52:52.874Z,52.52
2023-08-02T14:54:03.728Z,47.96
2023-08-02T14:54:53.846Z,52.45
2023-08-02T14:55:52.829Z,50.30
2023-08-02T14:56:52.835Z,52.12
2023-08-02T14:57:52.817Z,52.43
2023-08-02T14:58:52.795Z,55.12
2023-08-02T14:59:52.793Z,50.63
2023-08-02T15:00:52.999Z,47.46
2023-08-02T15:01:52.872Z,47.72
2023-08-02T15:02:55.888Z,53.39
2023-08-02T15:03:53.741Z,50.87
2023-08-02T15:04:52.738Z,49.54
2023-08-02T15:05:52.733Z,50.91
2023-08-02T15:06:52.746Z,54.57
2023-08-02T15:07:52.695Z,48.74
2023-08-02T15:08:52.693Z,50.89
2023-08-02T15:09:52.680Z,51.52
2023-08-02T15:10:54.541Z,51.19
2023-08-02T15:11:52.669Z,56.45
2023-08-02T15:12:52.938Z,51.70
2023-08-02T15:13:52.639Z,50.98
2023-08-02T15:14:52.627Z,51.51
2023-08-02T15:15:52.644Z,50.93
2023-08-02T15:16:54.219Z,52.23
2023-08-02T15:17:52.642Z,49.27
2023-08-02T15:18:52.582Z,55.66
2023-08-02T15:19:52.579Z,51.82
2023-08-02T15:20:52.577Z,48.85
2023-08-02T15:21:52.566Z,55.02
2023-08-02T15:22:52.553Z,50.84
2023-08-02T15:23:52.564Z,54.38
2023-08-02T15:24:52.515Z,55.13
2023-08-02T15:25:52.513Z,51.39
2023-08-02T15:26:52.501Z,54.32
2023-08-02T15:27:52.481Z,51.20
2023-08-02T15:28:52.485Z,57.18
2023-08-02T15:29:52.507Z,53.30
2023-08-02T15:30:52.497Z,54.19
2023-08-02T15:31:52.438Z,53.91
2023-08-02T15:32:52.449Z,51.44
2023-08-02T15:33:52.427Z,49.37
2023-08-02T15:34:52.440Z,52.03
2023-08-02T15:35:52.401Z,50.72
2023-08-02T15:36:52.422Z,52.87
2023-08-02T15:37:52.375Z,51.91
2023-08-02T15:38:52.374Z,50.96
2023-08-02T15:39:52.365Z,49.04
2023-08-02T15:40:52.392Z,50.59
2023-08-02T15:41:52.337Z,50.10
2023-08-02T15:42:52.330Z,52.06
2023-08-02T15:43:52.324Z,52.84
2023-08-02T15:44:52.317Z,51.14
2023-08-02T15:45:52.289Z,46.27
2023-08-02T15:46:52.420Z,48.26
2023-08-02T15:47:52.305Z,52.81
2023-08-02T15:48:52.273Z,50.72
2023-08-02T15:49:52.248Z,48.43
2023-08-02T15:50:52.234Z,49.42
2023-08-02T15:51:52.226Z,47.89
2023-08-02T15:52:52.214Z,51.61
2023-08-02T15:53:52.233Z,52.86
2023-08-02T15:54:52.210Z,50.77
2023-08-02T15:55:52.206Z,54.78
2023-08-02T15:56:52.215Z,51.54
2023-08-02T15:57:52.158Z,50.37
2023-08-02T15:58:52.168Z,47.56
2023-08-02T15:59:52.139Z,49.16
2023-08-02T16:00:52.164Z,53.65
2023-08-02T16:01:52.123Z,54.10
2023-08-02T16:02:52.170Z,52.58
2023-08-02T16:03:52.118Z,51.01
2023-08-02T16:04:52.103Z,51.46
2023-08-02T16:05:52.119Z,47.04
2023-08-02T16:06:52.113Z,49.21
2023-08-02T16:07:52.090Z,50.62
2023-08-02T16:08:52.050Z,50.80
2023-08-02T16:09:52.035Z,47.11
2023-08-02T16:10:52.039Z,52.00
2023-08-02T16:11:52.016Z,51.86
2023-08-02T16:12:52.024Z,55.27
2023-08-02T16:13:52.041Z,50.21
2023-08-02T16:14:51.987Z,49.00
2023-08-02T16:15:51.980Z,51.80
2023-08-02T16:16:52.013Z,49.10
2023-08-02T16:17:51.994Z,51.21
2023-08-02T16:18:51.955Z,53.36
2023-08-02T16:19:51.976Z,47.93
2023-08-02T16:20:51.924Z,44.87
2023-08-02T16:21:51.931Z,48.48
2023-08-02T16:22:51.908Z,48.04
2023-08-02T16:23:51.894Z,52.37
2023-08-02T16:24:51.887Z,48.07
2023-08-02T16:25:51.881Z,48.40
2023-08-02T16:26:51.878Z,49.65
2023-08-02T16:27:51.841Z,52.43
2023-08-02T16:28:51.840Z,54.56
2023-08-02T16:29:51.830Z,49.12
2023-08-02T16:30:51.870Z,51.15
2023-08-02T16:31:51.865Z,49.42
2023-08-02T16:32:51.848Z,50.74
2023-08-02T16:33:51.789Z,52.47
2023-08-02T16:34:51.781Z,50.98
2023-08-02T16:35:51.792Z,52.64
2023-08-02T16:36:51.768Z,54.55
2023-08-02T16:37:51.746Z,49.76
2023-08-02T16:38:51.742Z,47.24
2023-08-02T16:39:51.731Z,51.50
2023-08-02T16:40:51.764Z,49.70
2023-08-02T16:41:51.709Z,48.92
2023-08-02T16:42:51.702Z,55.98
2023-08-02T16:43:51.697Z,47.90
2023-08-02T16:44:51.683Z,51.57
2023-08-02T16:45:51.677Z,51.83
2023-08-02T16:46:51.735Z,54.80
2023-08-02T16:47:51.728Z,53.41
2023-08-02T16:50:15.263Z,53.92
2023-08-02T16:50:53.470Z,52.81
2023-08-02T16:51:51.621Z,48.06
2023-08-02T17:18:26.529Z,50.89
2023-08-02T17:22:12.659Z,49.99
2023-08-02T17:23:08.103Z,50.62
2023-08-02T19:01:31.940Z,52.69
2023-08-02T19:02:32.614Z,47.85
2023-08-02T19:04:13.020Z,48.68
2023-08-02T19:04:31.608Z,51.35
2023-08-02T19:05:31.599Z,49.56
2023-08-02T19:06:31.675Z,49.92
2023-08-02T19:07:31.629Z,45.92
2023-08-02T19:08:31.550Z,45.35
2023-08-02T19:09:31.570Z,48.28
2023-08-02T19:10:31.531Z,46.73
2023-08-02T19:11:31.531Z,43.89
2023-08-02T19:12:31.564Z,49.06
2023-08-02T19:13:31.494Z,47.39
2023-08-02T19:14:31.490Z,45.91
2023-08-02T19:15:31.499Z,44.91
2023-08-02T19:16:31.475Z,44.36
2023-08-02T19:17:31.515Z,47.39
2023-08-02T19:18:31.433Z,53.50
2023-08-02T19:19:31.436Z,47.63
2023-08-02T19:20:31.437Z,47.28
2023-08-02T19:21:31.440Z,46.40
2023-08-02T19:22:31.430Z,46.41
2023-08-02T19:23:31.385Z,45.76
2023-08-02T19:24:31.558Z,48.37
2023-08-02T19:25:31.549Z,45.85
2023-08-02T19:26:31.426Z,47.63
2023-08-02T19:27:31.402Z,48.74
2023-08-02T19:28:31.376Z,47.73
2023-08-02T19:29:31.439Z,48.68
2023-08-02T19:30:31.373Z,47.86
2023-08-02T19:31:31.472Z,50.44
2023-08-02T19:32:31.426Z,50.22
